METAR és
SPECI
METAR LHBP 231200Z 31015G25KT 9999 SCT037 BKN052 15/07 Q1014 NOSIG=
METAR LHBP 231130Z 32015G28KT 9999 SCT034 BKN050 15/07 Q1014 NOSIG=
METAR LHBP 231100Z 30013KT 270V330 9999 SCT032 BKN052 15/07 Q1014 NOSIG=
METAR LHBP 231030Z 29017KT 9999 SCT035 SCT058 15/07 Q1014 NOSIG=
METAR LHBP 231000Z 29019KT 9999 SCT035 SCT062 15/06 Q1014 NOSIG=
METAR LHBP 230930Z 29018KT 9999 SCT034 15/07 Q1014 NOSIG=
TAF
TAF LHBP 231100Z 2312/2412 30018KT 9999 SCT036 TEMPO 2312/2315 BKN040 BECMG 2315/2318 29011KT CAVOK BECMG 2320/2323 29005KT TEMPO 2400/2409 VRB03KT BECMG 2408/2411 14005KT=
GAMET
FAHU41 LHBM 231100
LHCC GAMET VALID 231200/231800 LHBP-
LHCC BUDAPEST FIR BLW FL100
SECN I
SIG CLD: 12/14 ISOL TCU CB E OF LINE N4615 E02106 - N4813 E01935
TURB: 12/16 MOD SFC/5000 FT AMSL W OF LINE N4609 E02005 - N4805
E01921
SIGMETS APPLICABLE: NIL=
OMSZ: 2014. szeptember 23. 12:42 (10:42  UTC)
[FAHU41]
AIRMET
Nincs érvényes távirat! 
WAHU41 LHBM 200915
LHCC AIRMET 02 VALID 200900/201030 LHBP-
LHCC BUDAPEST FIR SFC VIS 0800-5000M FG BR AND
BKN CLD 0300-1000/1500 FT AGL OBS AT 0900Z
WI N4737 E01725 - N4652 E01649 - N4703 E01810 STNR WKN=
SIGMET
Nincs érvényes távirat! 
WSHU31 LHBM 220130
LHCC SIGMET 01 VALID 220130/220330 LHBP-
LHCC BUDAPEST FIR EMBD TS FCST S OF LINE N4750 E01707 -
N4704 E01916 - N4710 E02143 TOP FL300 MOV ESE WKN=
SIGMET
Vulkáni hamufelhő
Not valid product! 
WVHU31 LHBM 271515 CCA
LHCC SIGMET 03 VALID 271515/271800 LHBP-
LHCC BUDAPEST FIR EXERCISE VOLCEX12/01
CNL VA SIGMET 02 271200/271800
EXERCISE EXERCISE EXERCISE VOLCEX12/01=